CST,Max TemperatureF,Mean TemperatureF,Min TemperatureF,Max Dew PointF,MeanDew PointF,Min DewpointF,Max Humidity, Mean Humidity, Min Humidity, Max Sea Level PressureIn, Mean Sea Level PressureIn, Min Sea Level PressureIn, Max VisibilityMiles, Mean VisibilityMiles, Min VisibilityMiles, Max Wind SpeedMPH, Mean Wind SpeedMPH, Max Gust SpeedMPH,PrecipitationIn, CloudCover, Events, WindDirDegrees
2011-12-1,50,36,21,31,26,18,88,67,46,30.35,30.30,30.23,10,10,8,8,2,12,0.00,0,,211
2011-12-2,55,42,29,39,34,27,92,71,50,30.42,30.39,30.34,10,10,9,9,2,21,0.00,1,,114
2011-12-3,63,52,41,40,34,31,73,54,34,30.36,30.25,30.11,10,10,10,22,10,31,0.00,1,,164
2011-12-4,59,52,44,52,50,41,100,76,51,30.16,30.12,30.06,10,4,1,22,8,32,2.63,8,Rain,99
2011-12-5,44,40,36,42,36,33,100,93,85,30.17,30.12,30.07,10,6,2,22,14,28,2.39,8,Rain,5
2011-12-6,41,39,36,37,36,34,100,93,85,30.19,30.14,30.10,10,5,2,15,8,20,T,8,,349
2011-12-7,40,35,30,34,30,28,96,83,70,30.27,30.15,30.05,10,9,4,18,9,22,0.03,6,Snow,321
2011-12-8,45,36,26,31,27,24,92,71,49,30.35,30.27,30.22,10,8,4,12,4,16,0.00,0,,205
2011-12-9,48,37,26,33,28,23,92,73,53,30.49,30.33,30.23,10,10,7,18,6,23,0.00,2,,317
2011-12-10,39,31,22,23,19,15,88,64,40,30.64,30.56,30.50,10,10,10,9,3,12,0.00,0,,24
2011-12-11,46,33,20,25,20,16,92,64,36,30.57,30.49,30.41,10,10,9,9,2,12,0.00,0,,104
2011-12-12,55,39,23,38,28,19,92,65,38,30.43,30.40,30.37,10,10,9,7,1,9,0.00,2,,158
2011-12-13,50,46,41,48,44,37,100,88,76,30.48,30.40,30.28,8,4,1,8,2,12,0.34,8,Rain,151
2011-12-14,64,55,46,54,50,46,100,84,67,30.27,30.14,29.95,10,6,2,16,8,25,0.00,5,,201
2011-12-15,63,51,38,60,50,29,90,78,65,30.30,30.06,29.90,10,9,2,23,13,30,0.42,5,Rain,266
2011-12-16,42,34,26,30,28,25,92,76,60,30.41,30.35,30.30,10,10,8,16,7,20,T,4,Rain,6
2011-12-17,46,34,22,34,28,20,96,75,53,30.43,30.37,30.32,10,8,4,16,6,20,0.00,0,,238
2011-12-18,55,42,29,36,33,28,92,69,46,30.37,30.28,30.17,10,9,7,15,6,18,0.00,1,,216
2011-12-19,53,48,42,40,36,34,76,65,54,30.17,30.12,30.08,10,10,10,13,6,20,0.00,7,,198
2011-12-20,62,51,40,59,52,36,100,85,70,30.09,29.87,29.73,10,7,2,16,6,21,0.41,7,Rain,174
2011-12-21,62,54,45,59,44,39,90,83,76,30.02,29.86,29.72,10,10,10,24,10,31,0.01,6,,238
2011-12-22,47,43,39,45,41,36,96,86,76,30.24,30.07,29.98,10,7,2,14,5,20,0.34,7,Rain,349
2011-12-23,39,35,30,36,33,27,92,84,75,30.42,30.36,30.25,10,8,4,12,5,15,0.00,7,,323
2011-12-24,47,36,25,32,28,23,92,73,53,30.49,30.43,30.38,10,9,5,12,4,15,0.00,0,,211
2011-12-25,56,42,28,34,30,25,92,65,38,30.38,30.35,30.30,10,10,9,13,5,16,0.00,0,,247
2011-12-26,43,34,25,37,31,23,92,80,67,30.38,30.13,29.86,10,8,2,10,4,13,0.33,4,Rain,55
2011-12-27,49,41,33,38,35,29,100,80,60,30.08,29.83,29.69,10,7,0,20,10,29,0.39,7,Fog-Rain-Snow,288
2011-12-28,46,36,26,32,29,26,92,73,53,30.15,30.09,30.00,10,10,6,14,4,17,0.00,0,,221
2011-12-29,58,47,36,44,35,30,82,63,43,29.99,29.89,29.81,10,10,10,26,10,32,0.00,0,,209
2011-12-30,57,51,44,47,41,32,86,69,51,29.93,29.78,29.71,10,10,9,31,14,40,0.00,2,,227
2011-12-31,59,47,34,37,34,31,82,60,37,30.10,29.98,29.84,10,10,10,17,8,24,0.00,1,,191